createdAt,value
2022-12-20T00:02:06.843Z,200.20
2022-12-20T00:04:54.998Z,191.23
2022-12-20T00:07:37.792Z,192.73
2022-12-20T00:10:26.618Z,197.37
2022-12-20T00:13:09.019Z,190.52
2022-12-20T00:15:57.778Z,190.07
2022-12-20T00:18:40.055Z,205.35
2022-12-20T00:21:28.687Z,219.80
2022-12-20T00:24:23.917Z,250.30
2022-12-20T00:27:16.695Z,251.15
2022-12-20T00:29:59.044Z,215.68
2022-12-20T00:32:47.673Z,199.80
2022-12-20T00:35:30.062Z,203.77
2022-12-20T00:38:19.778Z,198.52
2022-12-20T00:41:38.592Z,193.23
2022-12-20T00:44:36.600Z,194.82
2022-12-20T00:47:25.028Z,189.15
2022-12-20T00:50:06.765Z,186.60
2022-12-20T00:52:55.697Z,185.82
2022-12-20T00:55:37.977Z,189.10
2022-12-20T00:58:26.647Z,188.95
2022-12-20T01:01:09.994Z,189.32
2022-12-20T01:03:59.629Z,187.82
2022-12-20T01:06:42.979Z,184.70
2022-12-20T01:09:31.613Z,180.23
2022-12-20T01:12:20.753Z,181.50
2022-12-20T01:15:02.896Z,178.40
2022-12-20T01:17:52.650Z,173.63
2022-12-20T01:20:34.890Z,177.60
2022-12-20T01:23:23.596Z,174.80
2022-12-20T01:26:16.566Z,176.65
2022-12-20T01:29:03.022Z,174.55
2022-12-20T01:31:51.726Z,178.43
2022-12-20T01:34:33.941Z,172.65
2022-12-20T01:37:22.641Z,174.00
2022-12-20T01:40:11.698Z,167.57
2022-12-20T01:48:36.640Z,165.35
2022-12-20T01:51:27.029Z,168.00
2022-12-20T01:54:46.626Z,162.60
2022-12-20T01:57:46.047Z,160.70
2022-12-20T02:00:28.691Z,160.35
2022-12-20T02:03:20.602Z,157.10
2022-12-20T02:06:09.702Z,152.90
2022-12-20T02:08:54.061Z,151.05
2022-12-20T02:11:52.747Z,152.88
2022-12-20T02:14:56.472Z,148.75
2022-12-20T02:18:00.699Z,148.63
2022-12-20T02:21:14.631Z,144.18
2022-12-20T02:24:37.584Z,140.90
2022-12-20T02:27:42.078Z,139.45
2022-12-20T02:30:30.608Z,136.98
2022-12-20T02:33:15.184Z,139.98
2022-12-20T02:36:03.595Z,137.38
2022-12-20T02:38:59.714Z,139.98
2022-12-20T02:41:54.594Z,143.65
2022-12-20T02:45:05.647Z,146.57
2022-12-20T02:48:12.903Z,153.40
2022-12-20T02:50:59.735Z,152.98
2022-12-20T02:53:50.623Z,155.13
2022-12-20T02:56:47.182Z,158.68
2022-12-20T02:59:45.569Z,158.25
2022-12-20T03:02:35.837Z,153.52
2022-12-20T03:05:31.698Z,158.25
2022-12-20T03:08:13.883Z,157.48
2022-12-20T03:11:04.725Z,153.52
2022-12-20T03:13:46.936Z,151.73
2022-12-20T03:16:35.672Z,153.38
2022-12-20T03:19:18.996Z,151.07
2022-12-20T03:22:07.664Z,155.73
2022-12-20T03:24:49.785Z,150.20
2022-12-20T03:27:38.642Z,153.52
2022-12-20T03:30:27.970Z,149.73
2022-12-20T03:33:10.637Z,151.73
2022-12-20T03:35:58.987Z,152.10
2022-12-20T03:38:41.595Z,149.07
2022-12-20T03:41:24.574Z,151.25
2022-12-20T03:44:15.682Z,151.93
2022-12-20T03:47:10.697Z,148.13
2022-12-20T03:50:01.085Z,149.82
2022-12-20T03:52:44.611Z,145.70
2022-12-20T03:55:32.959Z,148.07
2022-12-20T03:58:14.576Z,149.15
2022-12-20T04:00:59.310Z,146.10
2022-12-20T04:03:54.673Z,147.38
2022-12-20T04:06:36.770Z,146.75
2022-12-20T04:09:25.596Z,151.75
2022-12-20T04:12:13.880Z,150.27
2022-12-20T04:15:02.575Z,151.13
2022-12-20T04:17:53.679Z,158.32
2022-12-20T04:20:36.067Z,148.77
2022-12-20T04:23:33.603Z,146.75
2022-12-20T04:26:18.872Z,146.95
2022-12-20T04:29:07.643Z,146.05
2022-12-20T04:31:52.081Z,150.02
2022-12-20T04:34:40.681Z,152.13
2022-12-20T04:37:22.964Z,154.23
2022-12-20T04:40:13.644Z,154.25
2022-12-20T04:43:07.579Z,152.63
2022-12-20T04:45:58.662Z,157.35
2022-12-20T04:48:56.935Z,158.07
2022-12-20T04:51:42.587Z,158.55
2022-12-20T04:54:28.343Z,161.00
2022-12-20T04:57:28.625Z,157.68
2022-12-20T05:00:16.455Z,157.98
2022-12-20T05:03:14.799Z,158.27
2022-12-20T05:05:57.804Z,157.00
2022-12-20T05:08:49.013Z,167.18
2022-12-20T05:11:37.901Z,162.38
2022-12-20T05:14:20.714Z,159.73
2022-12-20T05:17:09.757Z,164.75
2022-12-20T05:19:51.994Z,166.38
2022-12-20T05:22:58.580Z,170.32
2022-12-20T05:26:01.411Z,163.15
2022-12-20T05:28:52.630Z,170.77
2022-12-20T05:31:36.105Z,175.73
2022-12-20T05:34:24.700Z,169.18
2022-12-20T05:37:07.232Z,171.82
2022-12-20T05:39:57.533Z,171.90
2022-12-20T05:42:47.711Z,171.45
2022-12-20T05:45:37.311Z,174.70
2022-12-20T05:48:30.624Z,176.60
2022-12-20T05:51:13.899Z,177.40
2022-12-20T05:54:22.717Z,164.40
2022-12-20T05:57:11.076Z,155.15
2022-12-20T05:59:59.629Z,100.70
2022-12-20T06:02:52.194Z,107.53
2022-12-20T06:05:41.587Z,90.72
2022-12-20T06:08:36.663Z,86.33
2022-12-20T06:11:29.943Z,85.28
2022-12-20T06:14:23.576Z,81.95
2022-12-20T06:17:05.927Z,76.28
2022-12-20T06:19:54.605Z,76.75
2022-12-20T06:22:45.771Z,67.85
2022-12-20T06:25:28.892Z,67.78
2022-12-20T06:28:17.722Z,66.60
2022-12-20T06:31:00.470Z,64.38
2022-12-20T06:34:03.624Z,62.92
2022-12-20T06:36:55.908Z,67.45
2022-12-20T06:39:41.606Z,62.58
2022-12-20T06:42:30.597Z,64.05
2022-12-20T06:45:13.978Z,61.80
2022-12-20T06:48:02.710Z,63.80
2022-12-20T06:50:56.278Z,62.20
2022-12-20T06:53:38.869Z,69.30
2022-12-20T06:56:27.645Z,69.28
2022-12-20T06:59:16.992Z,62.65
2022-12-20T07:01:58.911Z,66.93
2022-12-20T07:04:46.946Z,68.45
2022-12-20T07:07:28.598Z,67.55
2022-12-20T07:10:17.679Z,67.07
2022-12-20T07:13:01.046Z,61.95
2022-12-20T07:15:49.599Z,63.13
2022-12-20T07:18:31.973Z,62.25
2022-12-20T07:21:24.632Z,60.67
2022-12-20T07:24:14.512Z,62.03
2022-12-20T07:27:03.652Z,60.83
2022-12-20T07:29:46.067Z,57.20
2022-12-20T07:32:34.606Z,57.25
2022-12-20T07:35:19.462Z,56.15
2022-12-20T07:38:08.672Z,55.65
2022-12-20T07:40:51.980Z,55.95
2022-12-20T07:43:40.671Z,61.47
2022-12-20T07:46:24.044Z,54.97
2022-12-20T07:49:13.618Z,53.75
2022-12-20T07:52:10.683Z,57.38
2022-12-20T07:55:07.658Z,56.55
2022-12-20T07:57:56.106Z,54.30
2022-12-20T08:00:47.645Z,52.10
2022-12-20T08:03:59.751Z,54.72
2022-12-20T08:06:43.487Z,51.20
2022-12-20T08:09:33.604Z,53.97
2022-12-20T08:12:25.972Z,56.20
2022-12-20T08:15:08.658Z,55.78
2022-12-20T08:17:58.905Z,55.92
2022-12-20T08:20:41.628Z,54.20
2022-12-20T08:23:29.916Z,52.97
2022-12-20T08:26:11.614Z,52.60
2022-12-20T08:28:59.956Z,56.53
2022-12-20T08:31:50.132Z,57.67
2022-12-20T08:34:38.949Z,57.47
2022-12-20T08:37:20.720Z,60.28
2022-12-20T08:40:09.731Z,63.05
2022-12-20T08:42:51.552Z,58.83
2022-12-20T08:45:40.110Z,59.35
2022-12-20T08:48:35.688Z,57.45
2022-12-20T08:51:17.913Z,57.40
2022-12-20T08:54:07.605Z,65.13
2022-12-20T08:56:56.039Z,65.05
2022-12-20T08:59:37.592Z,65.45
2022-12-20T09:02:27.188Z,63.58
2022-12-20T09:05:10.600Z,61.55
2022-12-20T09:07:58.928Z,65.50
2022-12-20T09:10:41.634Z,64.07
2022-12-20T09:13:29.954Z,66.33
2022-12-20T09:16:14.758Z,62.42
2022-12-20T09:19:06.737Z,55.25
2022-12-20T09:21:49.670Z,54.03
2022-12-20T09:24:37.957Z,53.22
2022-12-20T09:27:19.522Z,45.38
2022-12-20T09:30:08.659Z,46.65
2022-12-20T09:32:50.997Z,53.72
2022-12-20T09:35:41.582Z,53.97
2022-12-20T09:38:30.539Z,53.08
2022-12-20T09:41:50.642Z,52.80
2022-12-20T09:44:38.916Z,52.30
2022-12-20T09:47:32.706Z,55.22
2022-12-20T09:50:22.642Z,50.97
2022-12-20T09:53:33.937Z,53.25
2022-12-20T09:56:31.651Z,51.63
2022-12-20T09:59:24.574Z,46.13
2022-12-20T10:02:53.944Z,51.27
2022-12-20T10:05:46.788Z,51.10
2022-12-20T10:09:06.996Z,46.92
2022-12-20T10:12:29.614Z,41.20
2022-12-20T10:15:29.022Z,39.47
2022-12-20T10:18:23.690Z,36.00
2022-12-20T10:21:34.082Z,36.75
2022-12-20T10:24:27.635Z,41.97
2022-12-20T10:27:26.973Z,39.88
2022-12-20T10:30:23.709Z,39.17
2022-12-20T10:33:06.902Z,47.45
2022-12-20T10:35:56.538Z,49.10
2022-12-20T10:39:06.602Z,47.38
2022-12-20T10:41:59.640Z,46.15
2022-12-20T10:44:41.888Z,46.25
2022-12-20T10:47:54.579Z,48.13
2022-12-20T10:50:43.732Z,50.38
2022-12-20T10:53:32.664Z,46.95
2022-12-20T10:56:37.893Z,44.75
2022-12-20T10:59:26.664Z,47.50
2022-12-20T11:02:40.970Z,45.95
2022-12-20T11:05:37.650Z,44.00
2022-12-20T11:08:39.255Z,43.90
2022-12-20T11:11:31.625Z,43.65
2022-12-20T11:14:23.863Z,50.65
2022-12-20T11:17:08.607Z,47.35
2022-12-20T11:19:59.978Z,47.38
2022-12-20T11:22:54.618Z,47.15
2022-12-20T11:26:16.631Z,46.28
2022-12-20T11:29:41.935Z,45.40
2022-12-20T11:32:35.659Z,45.70
2022-12-20T11:35:34.913Z,43.17
2022-12-20T11:38:38.624Z,42.75
2022-12-20T11:41:53.338Z,44.80
2022-12-20T11:44:37.742Z,45.00
2022-12-20T11:47:50.425Z,44.03
2022-12-20T11:50:54.522Z,43.00
2022-12-20T11:53:46.124Z,42.72
2022-12-20T11:56:45.256Z,43.40
2022-12-20T11:59:51.236Z,43.28
2022-12-20T12:02:58.622Z,43.70
2022-12-20T12:05:51.969Z,44.20
2022-12-20T12:08:48.451Z,45.78
2022-12-20T12:12:05.839Z,47.03
2022-12-20T12:15:26.665Z,48.10
2022-12-20T12:18:43.284Z,47.70
2022-12-20T12:21:43.560Z,49.72
2022-12-20T12:24:42.588Z,48.53
2022-12-20T12:27:35.579Z,48.85
2022-12-20T12:30:22.967Z,50.33
2022-12-20T12:33:24.376Z,50.45
2022-12-20T12:36:32.621Z,50.00
2022-12-20T12:39:26.594Z,50.95
2022-12-20T12:42:43.596Z,52.88
2022-12-20T12:45:36.384Z,52.38
2022-12-20T12:48:58.536Z,56.03
2022-12-20T12:51:51.812Z,54.13
2022-12-20T12:54:50.029Z,59.53
2022-12-20T12:58:07.661Z,54.30
2022-12-20T13:01:03.618Z,57.05
2022-12-20T13:03:55.343Z,59.13
2022-12-20T13:06:44.651Z,61.85
2022-12-20T13:09:33.678Z,60.97
2022-12-20T13:12:47.701Z,58.97
2022-12-20T13:15:37.618Z,58.08
2022-12-20T13:18:20.063Z,60.10
2022-12-20T13:21:40.601Z,61.38
2022-12-20T13:24:47.651Z,62.40
2022-12-20T13:27:49.553Z,62.15
2022-12-20T13:30:34.496Z,61.00
2022-12-20T13:33:54.640Z,59.47
2022-12-20T13:36:46.954Z,61.33
2022-12-20T13:39:37.028Z,61.92
2022-12-20T13:42:34.965Z,62.35
2022-12-20T13:45:23.616Z,61.03
2022-12-20T13:48:17.648Z,61.60
2022-12-20T13:51:06.825Z,63.15
2022-12-20T13:53:57.523Z,63.50
2022-12-20T13:57:06.964Z,67.30
2022-12-20T13:59:52.587Z,66.38
2022-12-20T14:02:48.061Z,63.53
2022-12-20T14:05:50.647Z,68.00
2022-12-20T14:08:35.971Z,68.18
2022-12-20T14:11:43.626Z,68.68
2022-12-20T14:14:31.960Z,69.75
2022-12-20T14:17:36.482Z,69.72
2022-12-20T14:20:26.858Z,71.85
2022-12-20T14:23:30.610Z,72.18
2022-12-20T14:26:46.005Z,74.53
2022-12-20T14:29:36.623Z,73.90
2022-12-20T14:32:29.218Z,71.93
2022-12-20T14:35:12.663Z,71.83
2022-12-20T14:40:54.213Z,68.85
2022-12-20T14:43:38.773Z,72.40
2022-12-20T14:46:36.738Z,76.65
2022-12-20T14:49:31.449Z,75.95
2022-12-20T14:52:26.594Z,77.63
2022-12-20T14:55:27.915Z,76.32
2022-12-20T14:58:30.626Z,78.78
2022-12-20T15:01:29.654Z,77.72
2022-12-20T15:04:38.546Z,78.22
2022-12-20T15:07:40.032Z,81.45
2022-12-20T15:10:22.577Z,79.07
2022-12-20T15:13:04.990Z,82.30
2022-12-20T15:15:53.611Z,81.95
2022-12-20T15:18:43.043Z,80.15
2022-12-20T15:21:36.665Z,80.15
2022-12-20T15:24:31.547Z,84.25
2022-12-20T15:27:20.036Z,81.97
2022-12-20T15:30:08.580Z,83.38
2022-12-20T15:32:55.619Z,86.70
2022-12-20T15:35:44.578Z,82.22
2022-12-20T15:38:54.899Z,82.28
2022-12-20T15:41:42.606Z,82.15
2022-12-20T15:44:30.996Z,82.15
2022-12-20T15:47:21.599Z,83.72
2022-12-20T15:50:19.093Z,86.80
2022-12-20T15:53:08.693Z,85.93
2022-12-20T15:55:51.285Z,91.65
2022-12-20T15:58:40.656Z,90.53
2022-12-20T16:01:48.723Z,93.53
2022-12-20T16:04:37.599Z,95.13
2022-12-20T16:07:21.008Z,97.03
2022-12-20T16:10:09.524Z,96.20
2022-12-20T16:12:59.664Z,94.22
2022-12-20T16:15:48.949Z,95.03
2022-12-20T16:18:34.612Z,95.30
2022-12-20T16:21:34.550Z,98.70
2022-12-20T16:24:27.593Z,99.13
2022-12-20T16:27:16.574Z,106.97
2022-12-20T16:29:58.789Z,103.20
2022-12-20T16:32:48.543Z,105.90
2022-12-20T16:35:42.956Z,107.85
2022-12-20T16:38:31.598Z,109.75
2022-12-20T16:41:28.490Z,110.70
2022-12-20T16:44:23.559Z,107.03
2022-12-20T16:47:05.912Z,109.13
2022-12-20T16:49:54.544Z,107.07
2022-12-20T16:52:45.532Z,107.80
2022-12-20T16:55:32.176Z,108.88
2022-12-20T16:58:44.905Z,110.10
2022-12-20T17:01:33.136Z,111.25
2022-12-20T17:04:26.560Z,118.05
2022-12-20T17:07:15.618Z,115.78
2022-12-20T17:09:58.372Z,113.25
2022-12-20T17:12:47.584Z,119.05
2022-12-20T17:15:38.006Z,115.25
2022-12-20T17:18:26.572Z,119.68
2022-12-20T17:21:11.844Z,118.82
2022-12-20T17:24:01.603Z,119.30
2022-12-20T17:26:43.973Z,121.00
2022-12-20T17:29:32.647Z,116.70
2022-12-20T17:32:27.891Z,124.28
2022-12-20T17:35:38.606Z,121.80
2022-12-20T17:38:20.929Z,121.50
2022-12-20T17:41:09.497Z,124.05
2022-12-20T17:43:51.953Z,123.78
2022-12-20T17:46:41.567Z,129.32
2022-12-20T17:49:37.583Z,128.77
2022-12-20T17:52:28.436Z,125.28
2022-12-20T17:55:10.856Z,129.60
2022-12-20T17:58:00.707Z,134.05
2022-12-20T18:00:42.929Z,130.18
2022-12-20T18:04:02.303Z,133.60
2022-12-20T18:06:34.908Z,129.52
2022-12-20T18:09:26.533Z,133.35
2022-12-20T18:12:09.208Z,127.43
2022-12-20T18:14:58.427Z,130.68
2022-12-20T18:17:40.963Z,128.10
2022-12-20T18:20:29.682Z,128.70
2022-12-20T18:23:11.996Z,127.50
2022-12-20T18:26:00.612Z,131.52
2022-12-20T18:28:44.009Z,130.48
2022-12-20T18:31:35.669Z,135.50
2022-12-20T18:34:17.895Z,130.93
2022-12-20T18:37:06.572Z,128.75
2022-12-20T18:39:48.952Z,130.93
2022-12-20T18:42:37.515Z,127.68
2022-12-20T18:45:19.854Z,130.70
2022-12-20T18:48:08.669Z,128.25
2022-12-20T18:50:56.972Z,129.60
2022-12-20T18:53:41.566Z,129.48
2022-12-20T18:56:48.564Z,131.15
2022-12-20T18:59:30.822Z,132.05
2022-12-20T19:02:19.627Z,143.45
2022-12-20T19:05:08.561Z,136.05
2022-12-20T19:07:51.063Z,139.45
2022-12-20T19:10:40.952Z,143.35
2022-12-20T19:13:22.984Z,150.10
2022-12-20T19:16:16.674Z,172.82
2022-12-20T19:18:59.773Z,190.77
2022-12-20T19:21:49.484Z,210.15
2022-12-20T19:24:38.541Z,219.90
2022-12-20T19:27:27.508Z,212.77
2022-12-20T19:30:09.953Z,188.57
2022-12-20T19:32:58.505Z,174.20
2022-12-20T19:35:55.359Z,162.40
2022-12-20T19:38:44.533Z,158.93
2022-12-20T19:41:27.875Z,208.10
2022-12-20T19:44:17.541Z,216.50
2022-12-20T19:47:06.748Z,181.02
2022-12-20T19:50:02.363Z,167.40
2022-12-20T19:52:51.502Z,157.73
2022-12-20T19:55:34.050Z,157.68
2022-12-20T19:58:22.439Z,147.70
2022-12-20T20:01:05.864Z,145.60
2022-12-20T20:03:55.431Z,148.85
2022-12-20T20:06:37.945Z,145.25
2022-12-20T20:09:26.594Z,144.68
2022-12-20T20:12:09.871Z,143.65
2022-12-20T20:15:00.459Z,148.45
2022-12-20T20:17:42.903Z,144.88
2022-12-20T20:20:31.578Z,142.43
2022-12-20T20:23:13.826Z,145.77
2022-12-20T20:26:07.550Z,146.55
2022-12-20T20:28:49.835Z,146.05
2022-12-20T20:31:39.593Z,144.98
2022-12-20T20:34:21.999Z,141.57
2022-12-20T20:37:10.531Z,143.82
2022-12-20T20:39:52.871Z,141.75
2022-12-20T20:42:41.534Z,140.90
2022-12-20T20:45:23.775Z,142.05
2022-12-20T20:48:12.449Z,141.43
2022-12-20T20:51:00.927Z,141.73
2022-12-20T20:53:43.411Z,141.65
2022-12-20T20:56:32.524Z,142.75
2022-12-20T20:59:17.904Z,140.45
2022-12-20T21:02:06.916Z,140.00
2022-12-20T21:05:07.444Z,142.30
2022-12-20T21:07:57.854Z,139.40
2022-12-20T21:10:40.586Z,140.50
2022-12-20T21:13:28.872Z,140.82
2022-12-20T21:16:15.417Z,142.45
2022-12-20T21:19:06.839Z,145.45
2022-12-20T21:21:48.569Z,147.98
2022-12-20T21:24:30.820Z,145.90
2022-12-20T21:27:19.548Z,148.80
2022-12-20T21:30:08.553Z,150.07
2022-12-20T21:32:50.795Z,147.45
2022-12-20T21:35:39.464Z,149.57
2022-12-20T21:38:28.473Z,149.68
2022-12-20T21:41:20.372Z,145.65
2022-12-20T21:44:11.522Z,152.65
2022-12-20T21:46:59.874Z,147.68
2022-12-20T21:49:55.404Z,148.55
2022-12-20T21:52:45.586Z,147.73
2022-12-20T21:55:27.738Z,148.20
2022-12-20T21:58:16.374Z,148.30
2022-12-20T22:01:00.794Z,146.85
2022-12-20T22:03:49.529Z,148.13
2022-12-20T22:06:32.558Z,149.15
2022-12-20T22:09:21.469Z,151.07
2022-12-20T22:12:10.688Z,150.77
2022-12-20T22:14:59.933Z,150.75
2022-12-20T22:17:42.516Z,156.02
2022-12-20T22:20:31.552Z,152.55
2022-12-20T22:23:13.815Z,155.15
2022-12-20T22:26:02.474Z,156.30
2022-12-20T22:28:50.414Z,158.00
2022-12-20T22:31:39.566Z,161.75
2022-12-20T22:34:21.778Z,165.05
2022-12-20T22:37:10.461Z,164.82
2022-12-20T22:39:59.411Z,158.73
2022-12-20T22:42:42.347Z,152.40
2022-12-20T22:45:31.559Z,150.75
2022-12-20T22:48:19.777Z,150.65
2022-12-20T22:51:10.523Z,153.70
2022-12-20T22:53:59.498Z,151.88
2022-12-20T22:56:47.755Z,150.40
2022-12-20T22:59:30.495Z,149.57
2022-12-20T23:02:18.874Z,151.27
2022-12-20T23:05:01.440Z,149.27
2022-12-20T23:07:50.404Z,150.23
2022-12-20T23:10:57.367Z,149.85
2022-12-20T23:14:09.539Z,145.80
2022-12-20T23:16:51.989Z,144.50
2022-12-20T23:19:59.895Z,145.48
2022-12-20T23:22:41.861Z,142.77
2022-12-20T23:25:30.570Z,141.13
2022-12-20T23:28:12.868Z,139.43
2022-12-20T23:31:01.512Z,136.40
2022-12-20T23:33:44.788Z,133.18
2022-12-20T23:36:33.535Z,133.90
2022-12-20T23:39:16.831Z,133.77
2022-12-20T23:42:05.592Z,127.50
2022-12-20T23:44:47.788Z,127.18
2022-12-20T23:47:36.526Z,135.02
2022-12-20T23:50:24.791Z,131.02
2022-12-20T23:53:06.468Z,126.97
2022-12-20T23:55:58.972Z,131.48
2022-12-20T23:58:47.505Z,129.20
